»·PEaware :: GIHOT KSBP-KSBP

GIHOT :: KSBP-KSBP

FLIGHT INFORMATION

Flight Status: Arrived
Operator: Unknown
More flights by this operator :: More flights under this callsign
Pilot: Pedro F. (20756)
Aircraft: PIPER PA-28 CHEROKEE ARCHER
(PA28)
More flights by this aircraft type
Origin: KSBP San Luis Co Regl
United States
Destination: KSBP San Luis Co Regl
United States
More flights between these airports :: More routes between these airports
Route: CIRCUIT PATTERN
File this flight plan on PilotEdge
Remarks: Remaining in pattern. touch and go Circuit Pattern...1st time in Pilotedge
Altitude:
(Current/Filed)
1,000ft
Speed:
(Current/Filed)
90kts
Departed: 10-Oct-18 08:46 AM
Arrived: 10-Oct-18 08:53 AM
Distance/Time
Traveled:
0nm/0:07
Distance/Time
To Go:
Arrived

Flight Plot

Page will automatically refresh every two minutes.

Flight plan parsing failed; only flown route is shown


Map Options




Map Legend


Flown Route
Filed Route
Departure Airport
Arrival Airport
Navaid (VOR, NDB)
Fix

Horizontal Profiles

Position Reports

Time Latitude Longitude Heading Altitude Ground
Speed
10-Oct-18 08:14 35.237962 -120.639041 0 215ft 0kts
10-Oct-18 08:15 35.237962 -120.639041 0 215ft 0kts
10-Oct-18 08:16 35.237962 -120.639041 0 215ft 0kts
10-Oct-18 08:17 35.237962 -120.639041 0 215ft 0kts
10-Oct-18 08:18 35.237962 -120.639041 0 215ft 0kts
10-Oct-18 08:19 35.237962 -120.639041 0 215ft 0kts
10-Oct-18 08:20 35.237962 -120.639041 0 215ft 0kts
10-Oct-18 08:21 35.237962 -120.639041 0 215ft 0kts
10-Oct-18 08:22 35.237962 -120.639041 0 215ft 0kts
10-Oct-18 08:23 35.237962 -120.639041 0 215ft 0kts
10-Oct-18 08:24 35.237962 -120.639041 0 215ft 0kts
10-Oct-18 08:25 35.237962 -120.639041 0 215ft 0kts
10-Oct-18 08:26 35.237962 -120.639041 0 215ft 0kts
10-Oct-18 08:27 35.237962 -120.639041 0 215ft 0kts
10-Oct-18 08:28 35.237962 -120.639041 0 215ft 0kts
10-Oct-18 08:29 35.237962 -120.639041 0 215ft 0kts
10-Oct-18 08:30 35.237962 -120.639041 0 215ft 0kts
10-Oct-18 08:31 35.237962 -120.639041 0 215ft 0kts
10-Oct-18 08:32 35.237962 -120.639041 0 215ft 0kts
10-Oct-18 08:33 35.237962 -120.639041 0 215ft 0kts
10-Oct-18 08:34 35.237962 -120.639041 0 215ft 0kts
10-Oct-18 08:35 35.237962 -120.639041 0 215ft 0kts
10-Oct-18 08:36 35.237962 -120.639041 0 215ft 0kts
10-Oct-18 08:37 35.237962 -120.639041 0 215ft 0kts
10-Oct-18 08:38 35.237962 -120.639041 0 215ft 0kts
10-Oct-18 08:39 35.237962 -120.639041 0 215ft 0kts
10-Oct-18 08:40 35.237963 -120.639041 0 215ft 0kts
10-Oct-18 08:41 35.237966 -120.639041 0 215ft 0kts
10-Oct-18 08:42 35.237968 -120.639041 0 215ft 0kts
10-Oct-18 08:43 35.238002 -120.639119 237 215ft 4kts
10-Oct-18 08:44 35.236757 -120.638026 119 215ft 12kts
10-Oct-18 08:45 35.234700 -120.634282 124 215ft 14kts
10-Oct-18 08:46 35.233208 -120.632666 210 215ft 0kts
10-Oct-18 08:47 35.233205 -120.632669 210 215ft 0kts
10-Oct-18 08:48 35.235353 -120.637637 305 216ft 74kts
10-Oct-18 08:49 35.247516 -120.660706 282 1037ft 85kts
10-Oct-18 08:50 35.231253 -120.674678 154 998ft 72kts
10-Oct-18 08:51 35.219684 -120.654572 123 905ft 72kts
10-Oct-18 08:52 35.208909 -120.634585 122 772ft 70kts
10-Oct-18 08:53 35.217770 -120.617842 23 758ft 76kts
10-Oct-18 08:54 35.234060 -120.635288 304 231ft 74kts
10-Oct-18 08:55 35.239907 -120.644117 37 215ft 6kts
10-Oct-18 08:56 35.238667 -120.641476 119 215ft 19kts
10-Oct-18 08:57 35.238280 -120.638223 87 215ft 0kts
10-Oct-18 08:58 35.238280 -120.638222 87 215ft 0kts
10-Oct-18 08:59 35.238280 -120.638222 87 215ft 0kts
10-Oct-18 09:00 35.238280 -120.638222 87 215ft 0kts
10-Oct-18 09:01 35.238280 -120.638222 87 215ft 0kts
10-Oct-18 09:02 35.238280 -120.638222 87 215ft 0kts
10-Oct-18 09:03 35.238280 -120.638222 87 215ft 0kts
10-Oct-18 09:04 35.238280 -120.638222 87 215ft 0kts
10-Oct-18 09:05 35.238280 -120.638222 87 215ft 0kts
10-Oct-18 09:06 35.238280 -120.638222 87 215ft 0kts
10-Oct-18 09:07 35.238280 -120.638222 87 215ft 0kts
10-Oct-18 09:08 35.238280 -120.638222 87 215ft 0kts
10-Oct-18 09:09 35.238280 -120.638222 87 215ft 0kts
10-Oct-18 09:10 35.238280 -120.638222 87 215ft 0kts

Navigation Log

Ident Type
Flight plan parsing failed, navigation log unavailable